sensor_id;sensor_type;location;lat;lon;timestamp;temperature;humidity
77613;DHT22;66777;52.282;5.960;2023-04-10T00:01:22;5.00;78.60
77613;DHT22;66777;52.282;5.960;2023-04-10T00:03:48;4.90;79.20
77613;DHT22;66777;52.282;5.960;2023-04-10T00:06:15;4.80;79.50
77613;DHT22;66777;52.282;5.960;2023-04-10T00:08:41;4.80;79.60
77613;DHT22;66777;52.282;5.960;2023-04-10T00:11:07;4.80;79.60
77613;DHT22;66777;52.282;5.960;2023-04-10T00:13:32;4.90;79.60
77613;DHT22;66777;52.282;5.960;2023-04-10T00:15:58;4.90;79.70
77613;DHT22;66777;52.282;5.960;2023-04-10T00:18:24;4.90;79.70
77613;DHT22;66777;52.282;5.960;2023-04-10T00:20:50;4.90;79.30
77613;DHT22;66777;52.282;5.960;2023-04-10T00:23:16;4.90;79.30
77613;DHT22;66777;52.282;5.960;2023-04-10T00:25:41;4.90;79.10
77613;DHT22;66777;52.282;5.960;2023-04-10T00:28:07;4.90;79.20
77613;DHT22;66777;52.282;5.960;2023-04-10T00:30:33;4.90;79.20
77613;DHT22;66777;52.282;5.960;2023-04-10T00:33:00;4.90;79.50
77613;DHT22;66777;52.282;5.960;2023-04-10T00:35:25;4.90;79.60
77613;DHT22;66777;52.282;5.960;2023-04-10T00:37:51;4.90;79.60
77613;DHT22;66777;52.282;5.960;2023-04-10T00:40:19;4.90;79.70
77613;DHT22;66777;52.282;5.960;2023-04-10T00:42:44;4.90;80.00
77613;DHT22;66777;52.282;5.960;2023-04-10T00:45:10;4.80;79.70
77613;DHT22;66777;52.282;5.960;2023-04-10T00:47:36;4.80;79.90
77613;DHT22;66777;52.282;5.960;2023-04-10T00:50:03;4.80;79.90
77613;DHT22;66777;52.282;5.960;2023-04-10T00:52:31;4.80;80.30
77613;DHT22;66777;52.282;5.960;2023-04-10T00:54:58;4.80;79.80
77613;DHT22;66777;52.282;5.960;2023-04-10T00:57:24;4.80;79.70
77613;DHT22;66777;52.282;5.960;2023-04-10T00:59:51;4.90;79.70
77613;DHT22;66777;52.282;5.960;2023-04-10T01:02:17;4.90;79.90
77613;DHT22;66777;52.282;5.960;2023-04-10T01:04:45;4.90;80.20
77613;DHT22;66777;52.282;5.960;2023-04-10T01:07:34;5.00;79.90
77613;DHT22;66777;52.282;5.960;2023-04-10T01:15:19;4.90;80.40
77613;DHT22;66777;52.282;5.960;2023-04-10T01:20:32;4.80;80.30
77613;DHT22;66777;52.282;5.960;2023-04-10T01:25:57;4.80;80.50
77613;DHT22;66777;52.282;5.960;2023-04-10T01:31:12;4.80;80.50
77613;DHT22;66777;52.282;5.960;2023-04-10T01:33:49;4.80;80.40
77613;DHT22;66777;52.282;5.960;2023-04-10T01:36:21;4.70;80.70
77613;DHT22;66777;52.282;5.960;2023-04-10T01:38:49;4.70;80.50
77613;DHT22;66777;52.282;5.960;2023-04-10T01:41:18;4.70;80.50
77613;DHT22;66777;52.282;5.960;2023-04-10T01:43:48;4.70;80.50
77613;DHT22;66777;52.282;5.960;2023-04-10T01:46:16;4.70;80.30
77613;DHT22;66777;52.282;5.960;2023-04-10T01:48:44;4.90;80.40
77613;DHT22;66777;52.282;5.960;2023-04-10T01:51:12;5.00;80.00
77613;DHT22;66777;52.282;5.960;2023-04-10T01:53:40;5.00;79.80
77613;DHT22;66777;52.282;5.960;2023-04-10T01:56:08;5.10;79.50
77613;DHT22;66777;52.282;5.960;2023-04-10T01:58:37;5.30;79.20
77613;DHT22;66777;52.282;5.960;2023-04-10T02:01:03;5.30;78.50
77613;DHT22;66777;52.282;5.960;2023-04-10T02:03:30;5.40;78.30
77613;DHT22;66777;52.282;5.960;2023-04-10T02:06:10;5.50;78.10
77613;DHT22;66777;52.282;5.960;2023-04-10T02:08:46;5.60;77.60
77613;DHT22;66777;52.282;5.960;2023-04-10T02:11:43;5.70;76.80
77613;DHT22;66777;52.282;5.960;2023-04-10T02:14:15;5.80;76.70
77613;DHT22;66777;52.282;5.960;2023-04-10T02:16:43;5.80;76.70
77613;DHT22;66777;52.282;5.960;2023-04-10T02:19:10;5.80;76.60
77613;DHT22;66777;52.282;5.960;2023-04-10T02:21:38;5.80;75.80
77613;DHT22;66777;52.282;5.960;2023-04-10T02:24:06;5.90;75.50
77613;DHT22;66777;52.282;5.960;2023-04-10T02:26:52;5.90;75.40
77613;DHT22;66777;52.282;5.960;2023-04-10T02:29:18;5.90;75.60
77613;DHT22;66777;52.282;5.960;2023-04-10T02:31:45;5.90;75.90
77613;DHT22;66777;52.282;5.960;2023-04-10T02:34:12;5.90;75.50
77613;DHT22;66777;52.282;5.960;2023-04-10T02:36:38;5.90;75.40
77613;DHT22;66777;52.282;5.960;2023-04-10T02:39:05;5.90;75.50
77613;DHT22;66777;52.282;5.960;2023-04-10T02:41:32;6.00;75.30
77613;DHT22;66777;52.282;5.960;2023-04-10T02:43:58;6.00;75.10
77613;DHT22;66777;52.282;5.960;2023-04-10T02:46:24;6.00;75.00
77613;DHT22;66777;52.282;5.960;2023-04-10T02:48:51;6.00;75.00
77613;DHT22;66777;52.282;5.960;2023-04-10T02:51:17;6.00;75.60
77613;DHT22;66777;52.282;5.960;2023-04-10T02:53:44;5.90;75.40
77613;DHT22;66777;52.282;5.960;2023-04-10T02:56:10;6.00;74.90
77613;DHT22;66777;52.282;5.960;2023-04-10T02:58:37;6.10;74.70
77613;DHT22;66777;52.282;5.960;2023-04-10T03:01:05;6.10;74.60
77613;DHT22;66777;52.282;5.960;2023-04-10T03:03:33;6.10;74.60
77613;DHT22;66777;52.282;5.960;2023-04-10T03:05:59;6.10;74.40
77613;DHT22;66777;52.282;5.960;2023-04-10T03:08:25;6.10;74.40
77613;DHT22;66777;52.282;5.960;2023-04-10T03:10:51;6.10;74.40
77613;DHT22;66777;52.282;5.960;2023-04-10T03:13:17;6.10;74.70
77613;DHT22;66777;52.282;5.960;2023-04-10T03:15:42;6.00;75.10
77613;DHT22;66777;52.282;5.960;2023-04-10T03:18:09;5.90;75.40
77613;DHT22;66777;52.282;5.960;2023-04-10T03:20:35;5.90;76.40
77613;DHT22;66777;52.282;5.960;2023-04-10T03:23:07;5.80;76.40
77613;DHT22;66777;52.282;5.960;2023-04-10T03:25:36;5.80;76.50
77613;DHT22;66777;52.282;5.960;2023-04-10T03:28:02;5.80;76.00
77613;DHT22;66777;52.282;5.960;2023-04-10T03:30:27;5.90;76.10
77613;DHT22;66777;52.282;5.960;2023-04-10T03:32:53;5.90;75.70
77613;DHT22;66777;52.282;5.960;2023-04-10T03:35:19;5.90;75.80
77613;DHT22;66777;52.282;5.960;2023-04-10T03:37:46;6.00;75.20
77613;DHT22;66777;52.282;5.960;2023-04-10T03:40:12;6.10;75.20
77613;DHT22;66777;52.282;5.960;2023-04-10T03:42:39;6.00;75.10
77613;DHT22;66777;52.282;5.960;2023-04-10T03:45:05;6.10;74.90
77613;DHT22;66777;52.282;5.960;2023-04-10T03:47:33;6.00;75.10
77613;DHT22;66777;52.282;5.960;2023-04-10T03:49:59;6.00;74.90
77613;DHT22;66777;52.282;5.960;2023-04-10T03:52:25;6.00;74.60
77613;DHT22;66777;52.282;5.960;2023-04-10T03:54:53;6.00;74.60
77613;DHT22;66777;52.282;5.960;2023-04-10T03:57:19;6.00;75.00
77613;DHT22;66777;52.282;5.960;2023-04-10T03:59:46;6.00;74.80
77613;DHT22;66777;52.282;5.960;2023-04-10T04:02:12;6.10;74.50
77613;DHT22;66777;52.282;5.960;2023-04-10T04:04:39;6.10;74.80
77613;DHT22;66777;52.282;5.960;2023-04-10T04:07:05;6.10;74.50
77613;DHT22;66777;52.282;5.960;2023-04-10T04:09:31;6.10;74.40
77613;DHT22;66777;52.282;5.960;2023-04-10T04:11:57;6.10;74.70
77613;DHT22;66777;52.282;5.960;2023-04-10T04:14:23;6.00;75.00
77613;DHT22;66777;52.282;5.960;2023-04-10T04:16:49;5.90;75.00
77613;DHT22;66777;52.282;5.960;2023-04-10T04:19:15;5.90;74.90
77613;DHT22;66777;52.282;5.960;2023-04-10T04:21:41;5.90;75.00
77613;DHT22;66777;52.282;5.960;2023-04-10T04:24:06;5.90;75.00
77613;DHT22;66777;52.282;5.960;2023-04-10T04:26:32;5.90;74.70
77613;DHT22;66777;52.282;5.960;2023-04-10T04:28:58;5.90;75.00
77613;DHT22;66777;52.282;5.960;2023-04-10T04:31:24;5.90;75.00
77613;DHT22;66777;52.282;5.960;2023-04-10T04:33:54;5.90;75.00
77613;DHT22;66777;52.282;5.960;2023-04-10T04:36:20;5.80;75.40
77613;DHT22;66777;52.282;5.960;2023-04-10T04:38:46;5.80;75.40
77613;DHT22;66777;52.282;5.960;2023-04-10T04:41:12;5.80;75.70
77613;DHT22;66777;52.282;5.960;2023-04-10T04:43:38;5.80;75.70
77613;DHT22;66777;52.282;5.960;2023-04-10T04:46:04;5.80;75.40
77613;DHT22;66777;52.282;5.960;2023-04-10T04:48:30;5.80;75.40
77613;DHT22;66777;52.282;5.960;2023-04-10T04:50:56;5.80;75.50
77613;DHT22;66777;52.282;5.960;2023-04-10T04:53:23;5.80;75.40
77613;DHT22;66777;52.282;5.960;2023-04-10T04:55:49;5.80;75.60
77613;DHT22;66777;52.282;5.960;2023-04-10T04:58:15;5.70;76.10
77613;DHT22;66777;52.282;5.960;2023-04-10T05:00:41;5.70;76.30
77613;DHT22;66777;52.282;5.960;2023-04-10T05:03:06;5.60;76.60
77613;DHT22;66777;52.282;5.960;2023-04-10T05:05:32;5.60;76.90
77613;DHT22;66777;52.282;5.960;2023-04-10T05:07:59;5.60;77.10
77613;DHT22;66777;52.282;5.960;2023-04-10T05:10:25;5.60;77.00
77613;DHT22;66777;52.282;5.960;2023-04-10T05:12:51;5.60;76.90
77613;DHT22;66777;52.282;5.960;2023-04-10T05:15:16;5.60;76.80
77613;DHT22;66777;52.282;5.960;2023-04-10T05:17:42;5.70;76.50
77613;DHT22;66777;52.282;5.960;2023-04-10T05:20:08;5.80;76.20
77613;DHT22;66777;52.282;5.960;2023-04-10T05:22:35;5.80;76.00
77613;DHT22;66777;52.282;5.960;2023-04-10T05:25:00;5.90;76.00
77613;DHT22;66777;52.282;5.960;2023-04-10T05:27:27;5.90;75.50
77613;DHT22;66777;52.282;5.960;2023-04-10T05:29:52;5.90;75.70
77613;DHT22;66777;52.282;5.960;2023-04-10T05:32:18;5.90;75.20
77613;DHT22;66777;52.282;5.960;2023-04-10T05:34:44;6.00;75.30
77613;DHT22;66777;52.282;5.960;2023-04-10T05:37:09;6.10;74.80
77613;DHT22;66777;52.282;5.960;2023-04-10T05:39:37;6.10;74.80
77613;DHT22;66777;52.282;5.960;2023-04-10T05:42:04;6.20;74.80
77613;DHT22;66777;52.282;5.960;2023-04-10T05:44:30;6.20;74.70
77613;DHT22;66777;52.282;5.960;2023-04-10T05:46:56;6.30;74.60
77613;DHT22;66777;52.282;5.960;2023-04-10T05:49:21;6.40;74.20
77613;DHT22;66777;52.282;5.960;2023-04-10T05:51:47;6.50;73.50
77613;DHT22;66777;52.282;5.960;2023-04-10T05:54:17;6.70;73.30
77613;DHT22;66777;52.282;5.960;2023-04-10T05:56:43;6.80;73.20
77613;DHT22;66777;52.282;5.960;2023-04-10T05:59:09;6.90;72.50
77613;DHT22;66777;52.282;5.960;2023-04-10T06:01:35;7.00;72.10
77613;DHT22;66777;52.282;5.960;2023-04-10T06:04:02;7.10;71.80
77613;DHT22;66777;52.282;5.960;2023-04-10T06:06:28;7.20;71.50
77613;DHT22;66777;52.282;5.960;2023-04-10T06:08:54;7.30;71.20
77613;DHT22;66777;52.282;5.960;2023-04-10T06:11:20;7.40;71.00
77613;DHT22;66777;52.282;5.960;2023-04-10T06:13:46;7.50;70.70
77613;DHT22;66777;52.282;5.960;2023-04-10T06:16:12;7.60;70.50
77613;DHT22;66777;52.282;5.960;2023-04-10T06:18:42;7.70;70.40
77613;DHT22;66777;52.282;5.960;2023-04-10T06:21:08;7.80;70.00
77613;DHT22;66777;52.282;5.960;2023-04-10T06:23:34;7.90;69.60
77613;DHT22;66777;52.282;5.960;2023-04-10T06:26:01;8.00;69.70
77613;DHT22;66777;52.282;5.960;2023-04-10T06:28:28;8.20;68.90
77613;DHT22;66777;52.282;5.960;2023-04-10T06:30:54;8.30;68.80
77613;DHT22;66777;52.282;5.960;2023-04-10T06:33:20;8.40;68.50
77613;DHT22;66777;52.282;5.960;2023-04-10T06:35:47;8.50;68.10
77613;DHT22;66777;52.282;5.960;2023-04-10T06:38:13;8.60;67.90
77613;DHT22;66777;52.282;5.960;2023-04-10T06:40:42;8.70;67.80
77613;DHT22;66777;52.282;5.960;2023-04-10T06:43:10;8.80;67.50
77613;DHT22;66777;52.282;5.960;2023-04-10T06:45:37;9.00;66.70
77613;DHT22;66777;52.282;5.960;2023-04-10T06:48:04;9.00;66.70
77613;DHT22;66777;52.282;5.960;2023-04-10T06:50:31;9.20;66.40
77613;DHT22;66777;52.282;5.960;2023-04-10T06:52:56;9.30;66.00
77613;DHT22;66777;52.282;5.960;2023-04-10T06:55:25;9.40;65.20
77613;DHT22;66777;52.282;5.960;2023-04-10T06:57:51;9.60;65.20
77613;DHT22;66777;52.282;5.960;2023-04-10T07:00:18;9.70;64.60
77613;DHT22;66777;52.282;5.960;2023-04-10T07:02:45;9.90;64.30
77613;DHT22;66777;52.282;5.960;2023-04-10T07:05:12;10.00;63.70
77613;DHT22;66777;52.282;5.960;2023-04-10T07:07:38;10.20;63.00
77613;DHT22;66777;52.282;5.960;2023-04-10T07:10:04;10.30;63.10
77613;DHT22;66777;52.282;5.960;2023-04-10T07:12:32;10.40;62.60
77613;DHT22;66777;52.282;5.960;2023-04-10T07:14:58;10.50;62.70
77613;DHT22;66777;52.282;5.960;2023-04-10T07:17:24;10.60;62.50
77613;DHT22;66777;52.282;5.960;2023-04-10T07:19:50;10.70;62.20
77613;DHT22;66777;52.282;5.960;2023-04-10T07:22:15;10.80;62.10
77613;DHT22;66777;52.282;5.960;2023-04-10T07:24:41;10.90;61.40
77613;DHT22;66777;52.282;5.960;2023-04-10T07:27:07;11.00;61.50
77613;DHT22;66777;52.282;5.960;2023-04-10T07:29:33;11.20;61.00
77613;DHT22;66777;52.282;5.960;2023-04-10T07:31:59;11.30;60.70
77613;DHT22;66777;52.282;5.960;2023-04-10T07:34:25;11.30;60.50
77613;DHT22;66777;52.282;5.960;2023-04-10T07:36:52;11.30;60.40
77613;DHT22;66777;52.282;5.960;2023-04-10T07:39:17;11.30;60.20
77613;DHT22;66777;52.282;5.960;2023-04-10T07:41:43;11.40;60.40
77613;DHT22;66777;52.282;5.960;2023-04-10T07:44:10;11.50;60.10
77613;DHT22;66777;52.282;5.960;2023-04-10T07:46:37;11.60;60.00
77613;DHT22;66777;52.282;5.960;2023-04-10T07:49:05;11.50;59.70
77613;DHT22;66777;52.282;5.960;2023-04-10T07:51:30;11.70;59.70
77613;DHT22;66777;52.282;5.960;2023-04-10T07:53:56;11.80;59.60
77613;DHT22;66777;52.282;5.960;2023-04-10T07:56:22;11.80;59.70
77613;DHT22;66777;52.282;5.960;2023-04-10T07:58:49;11.90;59.70
77613;DHT22;66777;52.282;5.960;2023-04-10T08:01:15;11.80;59.70
77613;DHT22;66777;52.282;5.960;2023-04-10T08:03:43;11.80;59.90
77613;DHT22;66777;52.282;5.960;2023-04-10T08:06:09;11.70;60.00
77613;DHT22;66777;52.282;5.960;2023-04-10T08:08:40;11.70;60.40
77613;DHT22;66777;52.282;5.960;2023-04-10T08:11:20;11.70;60.30
77613;DHT22;66777;52.282;5.960;2023-04-10T08:13:49;11.80;60.00
77613;DHT22;66777;52.282;5.960;2023-04-10T08:16:21;11.90;60.00
77613;DHT22;66777;52.282;5.960;2023-04-10T08:18:47;12.40;59.10
77613;DHT22;66777;52.282;5.960;2023-04-10T08:21:14;13.00;58.60
77613;DHT22;66777;52.282;5.960;2023-04-10T08:23:40;13.50;56.40
77613;DHT22;66777;52.282;5.960;2023-04-10T08:26:06;13.90;54.80
77613;DHT22;66777;52.282;5.960;2023-04-10T08:28:32;14.20;54.00
77613;DHT22;66777;52.282;5.960;2023-04-10T08:30:58;14.50;53.80
77613;DHT22;66777;52.282;5.960;2023-04-10T08:33:24;14.80;53.50
77613;DHT22;66777;52.282;5.960;2023-04-10T08:35:50;14.90;52.50
77613;DHT22;66777;52.282;5.960;2023-04-10T08:38:16;15.00;51.80
77613;DHT22;66777;52.282;5.960;2023-04-10T08:40:43;15.30;51.40
77613;DHT22;66777;52.282;5.960;2023-04-10T08:43:09;15.50;51.10
77613;DHT22;66777;52.282;5.960;2023-04-10T08:45:35;15.60;50.80
77613;DHT22;66777;52.282;5.960;2023-04-10T08:48:03;15.60;50.60
77613;DHT22;66777;52.282;5.960;2023-04-10T08:50:32;15.50;49.60
77613;DHT22;66777;52.282;5.960;2023-04-10T08:53:09;15.50;49.80
77613;DHT22;66777;52.282;5.960;2023-04-10T08:55:36;15.30;49.70
77613;DHT22;66777;52.282;5.960;2023-04-10T08:58:03;15.30;49.00
77613;DHT22;66777;52.282;5.960;2023-04-10T09:00:32;15.20;49.70
77613;DHT22;66777;52.282;5.960;2023-04-10T09:02:59;15.00;49.00
77613;DHT22;66777;52.282;5.960;2023-04-10T09:05:29;15.10;49.60
77613;DHT22;66777;52.282;5.960;2023-04-10T09:07:55;15.30;49.00
77613;DHT22;66777;52.282;5.960;2023-04-10T09:10:22;15.40;48.50
77613;DHT22;66777;52.282;5.960;2023-04-10T09:12:48;15.50;48.60
77613;DHT22;66777;52.282;5.960;2023-04-10T09:15:15;15.80;48.00
77613;DHT22;66777;52.282;5.960;2023-04-10T09:17:57;16.10;48.10
77613;DHT22;66777;52.282;5.960;2023-04-10T09:20:25;16.50;47.70
77613;DHT22;66777;52.282;5.960;2023-04-10T09:22:52;16.40;47.00
77613;DHT22;66777;52.282;5.960;2023-04-10T09:25:37;16.10;47.80
77613;DHT22;66777;52.282;5.960;2023-04-10T09:28:08;16.10;47.60
77613;DHT22;66777;52.282;5.960;2023-04-10T09:30:35;16.30;47.70
77613;DHT22;66777;52.282;5.960;2023-04-10T09:33:01;16.40;48.00
77613;DHT22;66777;52.282;5.960;2023-04-10T09:35:37;16.70;47.70
77613;DHT22;66777;52.282;5.960;2023-04-10T09:38:18;16.40;47.80
77613;DHT22;66777;52.282;5.960;2023-04-10T09:40:45;16.50;47.50
77613;DHT22;66777;52.282;5.960;2023-04-10T09:43:18;16.20;47.00
77613;DHT22;66777;52.282;5.960;2023-04-10T09:45:49;16.00;47.90
77613;DHT22;66777;52.282;5.960;2023-04-10T09:48:15;15.80;48.50
77613;DHT22;66777;52.282;5.960;2023-04-10T09:50:41;15.80;48.70
77613;DHT22;66777;52.282;5.960;2023-04-10T09:53:09;15.80;48.30
77613;DHT22;66777;52.282;5.960;2023-04-10T09:55:35;15.50;48.70
77613;DHT22;66777;52.282;5.960;2023-04-10T09:58:03;15.60;49.00
77613;DHT22;66777;52.282;5.960;2023-04-10T10:00:28;15.60;49.00
77613;DHT22;66777;52.282;5.960;2023-04-10T10:02:58;15.60;49.30
77613;DHT22;66777;52.282;5.960;2023-04-10T10:05:26;15.70;49.20
77613;DHT22;66777;52.282;5.960;2023-04-10T10:07:56;15.60;49.10
77613;DHT22;66777;52.282;5.960;2023-04-10T10:10:25;15.50;49.00
77613;DHT22;66777;52.282;5.960;2023-04-10T10:12:55;15.40;49.00
77613;DHT22;66777;52.282;5.960;2023-04-10T10:15:25;15.40;49.00
77613;DHT22;66777;52.282;5.960;2023-04-10T10:20:37;15.50;49.20
77613;DHT22;66777;52.282;5.960;2023-04-10T10:23:06;15.80;49.00
77613;DHT22;66777;52.282;5.960;2023-04-10T10:25:34;15.80;48.70
77613;DHT22;66777;52.282;5.960;2023-04-10T10:28:03;16.10;48.60
77613;DHT22;66777;52.282;5.960;2023-04-10T10:30:33;16.40;48.20
77613;DHT22;66777;52.282;5.960;2023-04-10T10:33:04;16.50;47.90
77613;DHT22;66777;52.282;5.960;2023-04-10T10:35:31;16.80;47.60
77613;DHT22;66777;52.282;5.960;2023-04-10T10:37:58;17.20;47.20
77613;DHT22;66777;52.282;5.960;2023-04-10T10:43:46;17.40;46.70
77613;DHT22;66777;52.282;5.960;2023-04-10T10:46:42;17.00;47.00
77613;DHT22;66777;52.282;5.960;2023-04-10T10:49:09;16.90;47.60
77613;DHT22;66777;52.282;5.960;2023-04-10T10:54:26;16.80;47.30
77613;DHT22;66777;52.282;5.960;2023-04-10T10:56:54;16.70;47.20
77613;DHT22;66777;52.282;5.960;2023-04-10T11:02:14;16.90;48.20
77613;DHT22;66777;52.282;5.960;2023-04-10T11:04:50;17.00;47.90
77613;DHT22;66777;52.282;5.960;2023-04-10T11:07:16;17.20;47.30
77613;DHT22;66777;52.282;5.960;2023-04-10T11:09:48;17.40;47.50
77613;DHT22;66777;52.282;5.960;2023-04-10T11:12:16;17.50;47.10
77613;DHT22;66777;52.282;5.960;2023-04-10T11:14:42;17.70;46.90
77613;DHT22;66777;52.282;5.960;2023-04-10T11:17:09;17.60;46.90
77613;DHT22;66777;52.282;5.960;2023-04-10T11:20:08;17.50;46.60
77613;DHT22;66777;52.282;5.960;2023-04-10T11:23:07;17.60;46.90
77613;DHT22;66777;52.282;5.960;2023-04-10T11:25:47;18.00;46.40
77613;DHT22;66777;52.282;5.960;2023-04-10T11:34:07;20.00;44.00
77613;DHT22;66777;52.282;5.960;2023-04-10T11:36:34;20.30;43.70
77613;DHT22;66777;52.282;5.960;2023-04-10T11:39:07;20.70;42.20
77613;DHT22;66777;52.282;5.960;2023-04-10T11:41:43;22.80;41.00
77613;DHT22;66777;52.282;5.960;2023-04-10T11:44:12;24.80;39.10
77613;DHT22;66777;52.282;5.960;2023-04-10T11:46:40;25.50;37.50
77613;DHT22;66777;52.282;5.960;2023-04-10T11:49:08;25.60;37.80
77613;DHT22;66777;52.282;5.960;2023-04-10T11:51:36;26.50;37.00
77613;DHT22;66777;52.282;5.960;2023-04-10T11:54:06;28.60;34.60
77613;DHT22;66777;52.282;5.960;2023-04-10T11:56:32;30.40;33.30
77613;DHT22;66777;52.282;5.960;2023-04-10T11:58:59;32.10;32.50
77613;DHT22;66777;52.282;5.960;2023-04-10T12:01:26;31.20;32.90
77613;DHT22;66777;52.282;5.960;2023-04-10T12:03:53;28.90;34.00
77613;DHT22;66777;52.282;5.960;2023-04-10T12:06:19;26.30;35.90
77613;DHT22;66777;52.282;5.960;2023-04-10T12:08:46;24.40;37.80
77613;DHT22;66777;52.282;5.960;2023-04-10T12:11:21;22.80;39.10
77613;DHT22;66777;52.282;5.960;2023-04-10T12:13:51;21.70;40.40
77613;DHT22;66777;52.282;5.960;2023-04-10T12:16:17;21.30;41.40
77613;DHT22;66777;52.282;5.960;2023-04-10T12:18:43;21.20;41.30
77613;DHT22;66777;52.282;5.960;2023-04-10T12:21:13;21.30;41.40
77613;DHT22;66777;52.282;5.960;2023-04-10T12:23:39;21.20;41.50
77613;DHT22;66777;52.282;5.960;2023-04-10T12:28:33;21.30;41.50
77613;DHT22;66777;52.282;5.960;2023-04-10T12:30:59;21.90;41.10
77613;DHT22;66777;52.282;5.960;2023-04-10T12:33:25;22.20;40.90
77613;DHT22;66777;52.282;5.960;2023-04-10T12:35:51;22.50;40.40
77613;DHT22;66777;52.282;5.960;2023-04-10T12:38:41;22.10;40.50
77613;DHT22;66777;52.282;5.960;2023-04-10T12:41:11;23.50;39.00
77613;DHT22;66777;52.282;5.960;2023-04-10T12:43:39;23.60;39.10
77613;DHT22;66777;52.282;5.960;2023-04-10T12:46:07;23.30;39.30
77613;DHT22;66777;52.282;5.960;2023-04-10T12:48:34;23.10;39.30
77613;DHT22;66777;52.282;5.960;2023-04-10T12:51:00;22.30;40.60
77613;DHT22;66777;52.282;5.960;2023-04-10T12:53:27;21.30;41.50
77613;DHT22;66777;52.282;5.960;2023-04-10T12:55:58;20.50;42.70
77613;DHT22;66777;52.282;5.960;2023-04-10T12:58:25;20.20;43.00
77613;DHT22;66777;52.282;5.960;2023-04-10T13:00:58;19.90;43.30
77613;DHT22;66777;52.282;5.960;2023-04-10T13:03:24;19.70;43.60
77613;DHT22;66777;52.282;5.960;2023-04-10T13:05:51;19.80;43.60
77613;DHT22;66777;52.282;5.960;2023-04-10T13:08:18;19.70;43.70
77613;DHT22;66777;52.282;5.960;2023-04-10T13:10:44;19.40;44.00
77613;DHT22;66777;52.282;5.960;2023-04-10T13:13:10;19.10;44.40
77613;DHT22;66777;52.282;5.960;2023-04-10T13:15:38;18.90;45.00
77613;DHT22;66777;52.282;5.960;2023-04-10T13:18:04;18.50;45.30
77613;DHT22;66777;52.282;5.960;2023-04-10T13:20:36;18.30;45.50
77613;DHT22;66777;52.282;5.960;2023-04-10T13:23:02;18.20;45.80
77613;DHT22;66777;52.282;5.960;2023-04-10T13:25:33;18.20;45.80
77613;DHT22;66777;52.282;5.960;2023-04-10T13:28:00;18.10;46.40
77613;DHT22;66777;52.282;5.960;2023-04-10T13:30:30;18.10;46.60
77613;DHT22;66777;52.282;5.960;2023-04-10T13:32:55;17.80;46.60
77613;DHT22;66777;52.282;5.960;2023-04-10T13:35:21;17.50;46.50
77613;DHT22;66777;52.282;5.960;2023-04-10T13:37:48;17.40;47.10
77613;DHT22;66777;52.282;5.960;2023-04-10T13:40:20;17.20;47.30
77613;DHT22;66777;52.282;5.960;2023-04-10T13:42:49;17.10;47.50
77613;DHT22;66777;52.282;5.960;2023-04-10T13:45:14;16.90;47.60
77613;DHT22;66777;52.282;5.960;2023-04-10T13:47:42;16.80;47.80
77613;DHT22;66777;52.282;5.960;2023-04-10T13:50:09;16.80;47.80
77613;DHT22;66777;52.282;5.960;2023-04-10T13:52:36;16.80;48.00
77613;DHT22;66777;52.282;5.960;2023-04-10T13:55:03;16.70;48.00
77613;DHT22;66777;52.282;5.960;2023-04-10T13:57:30;16.70;48.10
77613;DHT22;66777;52.282;5.960;2023-04-10T13:59:56;16.70;48.20
77613;DHT22;66777;52.282;5.960;2023-04-10T14:02:21;16.70;48.20
77613;DHT22;66777;52.282;5.960;2023-04-10T14:04:47;17.00;48.20
77613;DHT22;66777;52.282;5.960;2023-04-10T14:07:13;17.20;47.60
77613;DHT22;66777;52.282;5.960;2023-04-10T14:09:40;17.20;47.70
77613;DHT22;66777;52.282;5.960;2023-04-10T14:12:06;17.00;48.00
77613;DHT22;66777;52.282;5.960;2023-04-10T14:14:32;16.90;48.60
77613;DHT22;66777;52.282;5.960;2023-04-10T14:16:58;16.70;48.70
77613;DHT22;66777;52.282;5.960;2023-04-10T14:19:24;16.50;49.00
77613;DHT22;66777;52.282;5.960;2023-04-10T14:21:50;16.40;49.70
77613;DHT22;66777;52.282;5.960;2023-04-10T14:24:15;16.00;58.00
77613;DHT22;66777;52.282;5.960;2023-04-10T14:26:42;15.50;59.60
77613;DHT22;66777;52.282;5.960;2023-04-10T14:29:07;15.10;60.50
77613;DHT22;66777;52.282;5.960;2023-04-10T14:31:34;15.00;61.20
77613;DHT22;66777;52.282;5.960;2023-04-10T14:34:01;15.00;61.10
77613;DHT22;66777;52.282;5.960;2023-04-10T14:36:27;15.20;59.50
77613;DHT22;66777;52.282;5.960;2023-04-10T14:39:00;15.40;56.90
77613;DHT22;66777;52.282;5.960;2023-04-10T14:41:25;15.50;56.90
77613;DHT22;66777;52.282;5.960;2023-04-10T14:43:57;15.50;55.70
77613;DHT22;66777;52.282;5.960;2023-04-10T14:46:22;15.60;55.30
77613;DHT22;66777;52.282;5.960;2023-04-10T14:48:51;15.60;56.20
77613;DHT22;66777;52.282;5.960;2023-04-10T14:51:18;15.80;54.40
77613;DHT22;66777;52.282;5.960;2023-04-10T14:53:51;16.00;53.00
77613;DHT22;66777;52.282;5.960;2023-04-10T14:56:17;16.20;52.30
77613;DHT22;66777;52.282;5.960;2023-04-10T14:58:53;16.50;53.10
77613;DHT22;66777;52.282;5.960;2023-04-10T15:01:19;16.70;51.90
77613;DHT22;66777;52.282;5.960;2023-04-10T15:03:52;16.70;51.90
77613;DHT22;66777;52.282;5.960;2023-04-10T15:06:25;16.50;53.30
77613;DHT22;66777;52.282;5.960;2023-04-10T15:08:53;16.20;54.50
77613;DHT22;66777;52.282;5.960;2023-04-10T15:11:22;15.30;67.50
77613;DHT22;66777;52.282;5.960;2023-04-10T15:13:48;14.90;69.50
77613;DHT22;66777;52.282;5.960;2023-04-10T15:16:15;14.40;66.40
77613;DHT22;66777;52.282;5.960;2023-04-10T15:18:47;13.90;67.90
77613;DHT22;66777;52.282;5.960;2023-04-10T15:21:14;13.50;68.60
77613;DHT22;66777;52.282;5.960;2023-04-10T15:23:40;13.30;68.10
77613;DHT22;66777;52.282;5.960;2023-04-10T15:26:12;13.00;71.80
77613;DHT22;66777;52.282;5.960;2023-04-10T15:28:48;12.50;74.40
77613;DHT22;66777;52.282;5.960;2023-04-10T15:31:14;12.20;77.60
77613;DHT22;66777;52.282;5.960;2023-04-10T15:33:52;11.90;80.30
77613;DHT22;66777;52.282;5.960;2023-04-10T15:36:18;11.60;83.20
77613;DHT22;66777;52.282;5.960;2023-04-10T15:38:56;11.50;85.30
77613;DHT22;66777;52.282;5.960;2023-04-10T15:41:32;11.50;86.20
77613;DHT22;66777;52.282;5.960;2023-04-10T15:44:16;11.50;86.50
77613;DHT22;66777;52.282;5.960;2023-04-10T15:46:51;11.50;87.70
77613;DHT22;66777;52.282;5.960;2023-04-10T15:49:21;11.50;87.80
77613;DHT22;66777;52.282;5.960;2023-04-10T15:51:47;11.50;87.20
77613;DHT22;66777;52.282;5.960;2023-04-10T15:54:17;11.50;87.60
77613;DHT22;66777;52.282;5.960;2023-04-10T15:56:45;11.50;88.60
77613;DHT22;66777;52.282;5.960;2023-04-10T15:59:17;11.50;88.50
77613;DHT22;66777;52.282;5.960;2023-04-10T16:01:43;11.40;88.80
77613;DHT22;66777;52.282;5.960;2023-04-10T16:04:09;11.40;88.70
77613;DHT22;66777;52.282;5.960;2023-04-10T16:06:35;11.40;89.50
77613;DHT22;66777;52.282;5.960;2023-04-10T16:09:01;11.40;89.90
77613;DHT22;66777;52.282;5.960;2023-04-10T16:11:33;11.30;89.80
77613;DHT22;66777;52.282;5.960;2023-04-10T16:14:00;11.40;90.00
77613;DHT22;66777;52.282;5.960;2023-04-10T16:16:26;11.30;90.30